Terminal Aerodrome Forecast
Issued by NWS

Home | Current Version | Previous Version | Text Only | Print | Product List | Glossary On
Versions: 1 2 3 4 5 6 7 8 9 10 11 12 13 14 15 16
000
FTUS46 KSEW 211700 RRA
TAFPAE
TAF
KPAE 211756Z 2118/2218 24007KT P6SM OVC020
     FM212000 25007KT P6SM SCT025
     FM220300 34005KT P6SM SCT050
     FM220600 01004KT P6SM BKN040
     FM221200 33003KT P6SM BKN020
      TEMPO 2212/2215 P6SM OVC015=

USA.gov is the U.S. government's official web portal to all federal, state and local government web resources and services.